Time;durP1;ratioP1;P1;durP2;ratioP2;P2;SDS_P1;SDS_P2;PMS_P1;PMS_P2;Temp;Humidity;BMP_temperature;BMP_pressure;BME280_temperature;BME280_humidity;BME280_pressure;Samples;Min_cycle;Max_cycle;Signal;HPM_P1;HPM_P2
2022/10/29 00:00:07;;;;;;;17.80;6.80;;;;;;;18.05;87.32;101220.72;5059076;28;20916;-63
2022/10/29 00:02:35;;;;;;;19.60;7.10;;;;;;;18.08;87.53;101225.75;5059165;28;20208;-63
2022/10/29 00:05:03;;;;;;;13.63;6.10;;;;;;;18.11;86.82;101229.94;5073604;28;20577;-63
2022/10/29 00:07:30;;;;;;;16.37;7.13;;;;;;;18.16;86.76;101230.22;5064669;28;20892;-63
2022/10/29 00:09:58;;;;;;;15.83;7.40;;;;;;;18.17;86.02;101232.72;5065262;28;20207;-63
2022/10/29 00:12:27;;;;;;;18.53;6.90;;;;;;;18.17;85.74;101226.53;5065232;28;20206;-63
2022/10/29 00:14:55;;;;;;;19.70;7.93;;;;;;;18.15;85.77;101226.69;5052561;28;20745;-63
2022/10/29 00:17:22;;;;;;;15.93;7.07;;;;;;;18.13;85.67;101223.34;5053336;28;20203;-63
2022/10/29 00:19:50;;;;;;;19.83;7.13;;;;;;;18.13;85.79;101223.34;5069304;28;20273;-63
2022/10/29 00:22:18;;;;;;;16.17;7.13;;;;;;;18.12;85.69;101232.41;5058166;28;20208;-63
2022/10/29 00:24:45;;;;;;;21.03;7.40;;;;;;;18.05;86.22;101237.66;5059702;28;20231;-63
2022/10/29 00:27:13;;;;;;;20.80;6.37;;;;;;;17.97;86.76;101234.19;5062767;28;20233;-63
2022/10/29 00:29:42;;;;;;;18.67;6.90;;;;;;;17.90;87.69;101227.88;5056834;28;20208;-63
2022/10/29 00:32:10;;;;;;;18.83;6.50;;;;;;;17.83;88.25;101226.91;5058556;28;20207;-63
2022/10/29 00:34:38;;;;;;;17.80;7.27;;;;;;;17.78;88.50;101223.91;5061398;28;20208;-63
2022/10/29 00:37:05;;;;;;;13.30;6.63;;;;;;;17.84;88.56;101217.88;5063153;28;20653;-62
2022/10/29 00:39:33;;;;;;;16.77;7.80;;;;;;;17.89;87.65;101223.53;5062249;28;20219;-63
2022/10/29 00:42:01;;;;;;;13.03;6.53;;;;;;;17.95;87.52;101225.47;5060684;28;20299;-63
2022/10/29 00:44:31;;;;;;;14.70;6.60;;;;;;;18.01;86.64;101231.00;5058176;28;20207;-63
2022/10/29 00:47:13;;;;;;;15.87;6.53;;;;;;;18.04;86.01;101230.63;5057456;28;20207;-63
2022/10/29 00:49:43;;;;;;;19.23;6.73;;;;;;;18.02;85.47;101232.66;5057132;28;20273;-63
2022/10/29 00:52:11;;;;;;;19.13;7.83;;;;;;;17.98;86.09;101225.13;5056050;28;20207;-63
2022/10/29 00:54:42;;;;;;;18.90;6.80;;;;;;;17.91;86.44;101222.34;5053196;28;20247;-63
2022/10/29 00:57:14;;;;;;;17.77;7.33;;;;;;;17.85;87.46;101224.91;5061167;28;20279;-63
2022/10/29 00:59:43;;;;;;;12.00;6.30;;;;;;;17.73;88.03;101226.31;5054119;28;20203;-63
2022/10/29 01:02:12;;;;;;;19.60;6.70;;;;;;;17.65;88.34;101219.97;5060281;28;20657;-63
2022/10/29 01:04:41;;;;;;;22.63;7.50;;;;;;;17.70;87.56;101232.00;5053449;28;20262;-63
2022/10/29 01:07:10;;;;;;;26.10;7.70;;;;;;;17.68;87.44;101233.03;5069865;28;20860;-63
2022/10/29 01:09:38;;;;;;;20.27;6.67;;;;;;;17.72;86.71;101230.84;5067640;28;20211;-63
2022/10/29 01:12:32;;;;;;;12.67;6.33;;;;;;;17.70;86.15;101232.84;5051150;28;20558;-63
2022/10/29 01:15:08;;;;;;;16.93;6.77;;;;;;;17.67;86.40;101236.75;5057717;28;20214;-63
2022/10/29 01:17:49;;;;;;;26.33;6.63;;;;;;;17.66;86.61;101248.47;5055549;28;20234;-63
2022/10/29 01:20:44;;;;;;;15.37;6.83;;;;;;;17.65;86.05;101241.44;5059855;28;20215;-63
2022/10/29 01:23:38;;;;;;;21.43;7.27;;;;;;;17.59;86.90;101241.28;5051357;28;20656;-63
2022/10/29 01:26:23;;;;;;;16.73;7.33;;;;;;;17.55;86.30;101227.38;5058728;28;20232;-63
2022/10/29 01:29:10;;;;;;;28.57;7.70;;;;;;;17.47;86.63;101230.09;5055127;28;20800;-63
2022/10/29 01:31:45;;;;;;;15.97;7.27;;;;;;;17.40;86.31;101221.09;5051920;28;20219;-62
2022/10/29 01:34:20;;;;;;;17.03;7.50;;;;;;;17.40;86.92;101228.28;5060437;28;20315;-63
2022/10/29 01:36:53;;;;;;;17.40;6.90;;;;;;;17.35;86.61;101212.72;5058622;28;20198;-63
2022/10/29 01:39:35;;;;;;;19.37;8.20;;;;;;;17.35;87.01;101225.28;5063268;28;20238;-63
2022/10/29 01:42:10;;;;;;;18.73;8.03;;;;;;;17.42;87.49;101220.88;5056287;28;20653;-62
2022/10/29 01:44:45;;;;;;;22.53;7.63;;;;;;;17.52;86.59;101227.72;5061556;28;20207;-62
2022/10/29 01:47:18;;;;;;;28.60;8.30;;;;;;;17.49;86.38;101232.59;5050256;28;20226;-62
2022/10/29 01:49:51;;;;;;;17.67;7.70;;;;;;;17.41;86.57;101220.06;5063282;28;20203;-62
2022/10/29 01:52:22;;;;;;;18.17;7.50;;;;;;;17.33;87.25;101217.41;5055443;28;20211;-63
2022/10/29 01:54:49;;;;;;;14.83;6.80;;;;;;;17.29;88.33;101221.47;5058890;28;20207;-62
2022/10/29 01:57:30;;;;;;;19.83;7.37;;;;;;;17.33;88.38;101212.03;5058389;28;20206;-62
2022/10/29 02:00:01;;;;;;;19.87;7.00;;;;;;;17.41;88.11;101209.34;5070240;28;20210;-63
2022/10/29 02:02:42;;;;;;;22.93;8.17;;;;;;;17.39;87.38;101207.84;5056865;28;20242;-63
2022/10/29 02:05:25;;;;;;;12.90;7.10;;;;;;;17.33;88.04;101206.69;5055273;28;20284;-63
2022/10/29 02:07:59;;;;;;;14.27;7.10;;;;;;;17.24;88.60;101202.34;5054596;28;20257;-63
2022/10/29 02:10:33;;;;;;;24.40;8.23;;;;;;;17.16;89.33;101195.19;5057169;28;20341;-63
2022/10/29 02:13:01;;;;;;;20.00;7.90;;;;;;;17.07;89.89;101200.75;5060252;28;20228;-63
2022/10/29 02:15:33;;;;;;;18.73;7.50;;;;;;;17.07;90.15;101203.44;5063313;28;20208;-63
2022/10/29 02:18:04;;;;;;;22.03;7.03;;;;;;;17.08;90.26;101205.94;5064974;28;20727;-63
2022/10/29 02:20:33;;;;;;;22.53;8.53;;;;;;;17.11;90.06;101200.25;5060609;28;20249;-63
2022/10/29 02:23:00;;;;;;;14.83;6.97;;;;;;;17.15;89.38;101195.38;5063399;28;20212;-63
2022/10/29 02:25:29;;;;;;;20.30;7.73;;;;;;;17.14;89.53;101194.56;5062604;28;20289;-63
2022/10/29 02:27:56;;;;;;;19.90;7.83;;;;;;;17.03;90.14;101196.75;5059088;28;20204;-63
2022/10/29 02:30:24;;;;;;;21.47;7.73;;;;;;;17.02;90.76;101198.59;5056108;28;20742;-63
2022/10/29 02:32:52;;;;;;;24.87;8.60;;;;;;;17.01;91.00;101199.59;5069177;28;20253;-63
2022/10/29 02:35:22;;;;;;;16.60;7.43;;;;;;;17.03;90.94;101202.13;5071196;28;20260;-63
2022/10/29 02:37:49;;;;;;;23.57;7.33;;;;;;;17.08;90.03;101205.09;5062723;28;20215;-63
2022/10/29 02:40:25;;;;;;;15.83;6.53;;;;;;;17.17;89.07;101201.38;5067443;28;20211;-63
2022/10/29 02:42:54;;;;;;;18.43;7.80;;;;;;;17.13;88.17;101195.56;5060258;28;20206;-62
2022/10/29 02:45:22;;;;;;;20.57;7.33;;;;;;;17.08;88.43;101199.75;5065391;28;20343;-63
2022/10/29 02:47:50;;;;;;;17.23;6.97;;;;;;;17.08;89.24;101189.88;5063344;28;20629;-63
2022/10/29 02:50:20;;;;;;;15.20;7.90;;;;;;;17.07;88.84;101195.38;5072545;28;20203;-63
2022/10/29 02:52:49;;;;;;;16.83;7.43;;;;;;;17.11;88.77;101202.09;5066991;28;20207;-63
2022/10/29 02:55:16;;;;;;;16.47;7.73;;;;;;;17.10;87.86;101197.72;5063578;28;20211;-63
2022/10/29 02:57:51;;;;;;;18.70;7.73;;;;;;;17.04;88.93;101199.28;5057548;28;20234;-63
2022/10/29 03:00:22;;;;;;;20.67;7.53;;;;;;;16.96;89.99;101193.09;5060670;28;20206;-63
2022/10/29 03:02:51;;;;;;;16.03;7.70;;;;;;;16.89;90.42;101193.78;5061138;28;20208;-63
2022/10/29 03:05:19;;;;;;;19.47;7.50;;;;;;;16.83;91.19;101193.63;5060152;28;20297;-63
2022/10/29 03:07:47;;;;;;;16.50;7.30;;;;;;;16.81;91.11;101193.78;5057998;28;20230;-63
2022/10/29 03:10:16;;;;;;;17.43;7.23;;;;;;;16.78;91.20;101194.16;5066669;28;20203;-63
2022/10/29 03:12:43;;;;;;;18.27;7.93;;;;;;;16.76;91.32;101206.03;5050064;28;20254;-63
2022/10/29 03:15:11;;;;;;;21.30;7.33;;;;;;;16.72;91.68;101202.00;5067008;28;20613;-63
2022/10/29 03:17:39;;;;;;;15.57;7.30;;;;;;;16.69;91.92;101192.50;5063184;28;20666;-63
2022/10/29 03:20:07;;;;;;;15.63;7.57;;;;;;;16.72;91.10;101188.63;5067576;28;21128;-63
2022/10/29 03:22:36;;;;;;;17.30;7.50;;;;;;;16.70;91.77;101183.47;5058665;28;20203;-63
2022/10/29 03:25:04;;;;;;;19.50;7.47;;;;;;;16.76;91.51;101185.44;5057962;28;20292;-63
2022/10/29 03:27:39;;;;;;;16.80;7.07;;;;;;;16.83;90.77;101189.09;5064472;28;20277;-63
2022/10/29 03:30:09;;;;;;;15.03;6.67;;;;;;;16.82;90.78;101182.06;5064026;28;20260;-63
2022/10/29 03:32:40;;;;;;;17.10;7.03;;;;;;;16.88;90.60;101188.59;5066547;28;20200;-63
2022/10/29 03:35:09;;;;;;;18.73;7.37;;;;;;;16.87;90.72;101186.94;5064251;28;20603;-63
2022/10/29 03:37:37;;;;;;;18.10;7.23;;;;;;;16.92;91.04;101184.56;5070028;28;20202;-63
2022/10/29 03:40:05;;;;;;;18.57;7.63;;;;;;;16.89;90.64;101179.53;5067431;28;20215;-61
2022/10/29 03:42:34;;;;;;;18.90;7.70;;;;;;;16.86;90.98;101185.25;5061984;28;20266;-61
2022/10/29 03:45:02;;;;;;;17.83;7.00;;;;;;;16.82;91.11;101186.59;5063885;28;20661;-62
2022/10/29 03:47:30;;;;;;;19.67;7.63;;;;;;;16.85;91.71;101189.78;5064747;28;20227;-62
2022/10/29 03:49:57;;;;;;;18.17;7.13;;;;;;;16.92;91.58;101196.13;5070766;28;20215;-62
2022/10/29 03:52:25;;;;;;;14.83;6.90;;;;;;;17.00;90.50;101197.09;5062631;28;20212;-62
2022/10/29 03:54:52;;;;;;;18.87;7.47;;;;;;;17.02;90.31;101197.75;5059913;28;20204;-62
2022/10/29 03:57:20;;;;;;;13.07;7.50;;;;;;;16.99;90.89;101200.78;5059013;28;20203;-63
2022/10/29 03:59:49;;;;;;;21.37;7.43;;;;;;;16.91;91.78;101196.28;5064223;28;20624;-63
2022/10/29 04:02:19;;;;;;;17.90;7.00;;;;;;;16.90;92.09;101192.75;5055573;28;20216;-62
2022/10/29 04:04:47;;;;;;;13.90;7.40;;;;;;;16.93;91.88;101197.78;5059091;28;20653;-62
2022/10/29 04:07:15;;;;;;;19.17;7.23;;;;;;;16.91;91.94;101191.75;5064234;28;20227;-62
2022/10/29 04:09:42;;;;;;;20.47;7.23;;;;;;;16.88;91.88;101184.09;5056235;28;20215;-63
2022/10/29 04:12:10;;;;;;;17.57;7.03;;;;;;;16.81;92.40;101185.75;5063407;28;20204;-63
2022/10/29 04:14:38;;;;;;;16.57;7.03;;;;;;;16.79;92.82;101179.75;5066380;28;20234;-63
2022/10/29 04:17:13;;;;;;;19.70;6.77;;;;;;;16.73;93.07;101184.94;5059700;28;20267;-63
2022/10/29 04:19:41;;;;;;;25.57;8.33;;;;;;;16.67;94.14;101189.16;5064305;28;20208;-62
2022/10/29 04:22:09;;;;;;;15.63;7.03;;;;;;;16.67;94.16;101186.47;5065774;28;20224;-63
2022/10/29 04:24:57;;;;;;;19.33;7.83;;;;;;;16.64;94.51;101192.16;5057826;28;20827;-63
2022/10/29 04:27:44;;;;;;;18.33;7.17;;;;;;;16.65;94.54;101196.50;5056098;28;20289;-62
2022/10/29 04:30:32;;;;;;;13.97;7.07;;;;;;;16.61;94.92;101192.50;5063556;28;20262;-63
2022/10/29 04:33:01;;;;;;;19.47;7.73;;;;;;;16.65;94.77;101191.16;5057950;28;20227;-63
2022/10/29 04:35:29;;;;;;;13.47;7.67;;;;;;;16.63;94.94;101195.84;5063996;28;20212;-63
2022/10/29 04:37:57;;;;;;;23.13;7.80;;;;;;;16.66;94.41;101192.81;5065130;28;20211;-63
2022/10/29 04:40:25;;;;;;;22.97;8.17;;;;;;;16.67;94.50;101202.53;5065732;28;20659;-63
2022/10/29 04:42:52;;;;;;;17.37;6.70;;;;;;;16.69;94.39;101200.53;5053396;28;20204;-62
2022/10/29 04:45:20;;;;;;;19.83;7.40;;;;;;;16.77;93.85;101199.69;5074694;28;20210;-63
2022/10/29 04:47:48;;;;;;;18.27;7.07;;;;;;;16.84;93.11;101196.13;5057635;28;20227;-63
2022/10/29 04:50:17;;;;;;;16.27;7.57;;;;;;;16.86;93.12;101191.44;5055268;28;20658;-63
2022/10/29 04:52:45;;;;;;;19.77;7.57;;;;;;;16.88;92.95;101189.44;5065802;28;20203;-63
2022/10/29 04:55:12;;;;;;;18.50;6.90;;;;;;;16.91;92.92;101191.75;5062633;28;20210;-63
2022/10/29 04:57:40;;;;;;;14.37;7.50;;;;;;;16.93;92.43;101187.06;5061283;28;20322;-63
2022/10/29 05:00:09;;;;;;;21.10;7.77;;;;;;;16.92;93.07;101182.72;5062088;28;20712;-63
2022/10/29 05:02:47;;;;;;;21.20;7.77;;;;;;;16.93;92.55;101176.34;5057286;28;20238;-63
2022/10/29 05:05:17;;;;;;;20.50;7.80;;;;;;;16.96;92.68;101174.34;5054509;28;20210;-63
2022/10/29 05:07:45;;;;;;;14.77;7.23;;;;;;;16.99;92.12;101168.63;5064148;28;20223;-63
2022/10/29 05:10:13;;;;;;;17.13;6.93;;;;;;;17.03;91.77;101169.97;5061706;28;20256;-63
2022/10/29 05:12:41;;;;;;;18.23;8.23;;;;;;;17.07;91.32;101165.91;5055924;28;20673;-63
2022/10/29 05:15:09;;;;;;;23.57;8.30;;;;;;;17.02;91.68;101165.63;5053449;28;22005;-63
2022/10/29 05:17:38;;;;;;;20.67;7.73;;;;;;;17.00;92.14;101175.66;5057919;28;20200;-63
2022/10/29 05:20:06;;;;;;;19.90;7.70;;;;;;;16.98;92.92;101183.03;5060215;28;20211;-63
2022/10/29 05:22:35;;;;;;;19.97;7.40;;;;;;;16.92;92.53;101185.41;5064171;28;20668;-63
2022/10/29 05:25:03;;;;;;;18.93;7.83;;;;;;;16.88;92.88;101184.09;5057538;28;20231;-63
2022/10/29 05:27:31;;;;;;;23.27;8.73;;;;;;;16.86;92.91;101186.09;5054475;28;20297;-63
2022/10/29 05:29:59;;;;;;;17.77;7.70;;;;;;;16.92;92.78;101179.22;5051142;28;20599;-63
2022/10/29 05:32:28;;;;;;;19.93;8.43;;;;;;;16.98;92.01;101181.19;5059255;28;20207;-63
2022/10/29 05:34:56;;;;;;;20.63;8.33;;;;;;;17.01;91.79;101182.69;5057943;28;20203;-63
2022/10/29 05:37:24;;;;;;;14.47;6.63;;;;;;;17.06;91.18;101170.47;5061205;28;20687;-63
2022/10/29 05:39:53;;;;;;;20.83;8.27;;;;;;;17.13;90.82;101175.97;5059538;28;20257;-63
2022/10/29 05:42:21;;;;;;;24.13;7.83;;;;;;;17.16;90.37;101170.22;5052739;28;20663;-63
2022/10/29 05:44:48;;;;;;;18.77;7.90;;;;;;;17.16;90.37;101175.59;5059448;28;20241;-64
2022/10/29 05:47:16;;;;;;;19.13;7.87;;;;;;;17.13;90.20;101171.44;5064134;28;20212;-63
2022/10/29 05:49:43;;;;;;;18.70;7.40;;;;;;;17.11;90.39;101172.63;5058013;28;20211;-62
2022/10/29 05:52:11;;;;;;;14.77;6.30;;;;;;;17.10;90.36;101171.78;5056481;28;20604;-63
2022/10/29 05:54:39;;;;;;;20.57;7.30;;;;;;;17.12;89.78;101174.28;5057839;28;20216;-63
2022/10/29 05:57:07;;;;;;;19.37;7.33;;;;;;;17.07;90.10;101172.13;5058494;28;20896;-63
2022/10/29 05:59:35;;;;;;;20.33;7.30;;;;;;;17.07;89.52;101160.56;5056983;28;20209;-63
2022/10/29 06:02:03;;;;;;;13.30;6.53;;;;;;;16.96;89.93;101169.84;5051110;28;20212;-62
2022/10/29 06:04:31;;;;;;;18.20;7.10;;;;;;;16.88;90.82;101168.00;5061439;28;20211;-63
2022/10/29 06:06:58;;;;;;;22.83;8.07;;;;;;;16.94;91.05;101177.19;5068025;28;20215;-63
2022/10/29 06:09:26;;;;;;;22.67;7.77;;;;;;;17.00;90.51;101176.50;5057787;28;20235;-63
2022/10/29 06:11:54;;;;;;;15.80;6.73;;;;;;;17.01;89.67;101182.69;5062106;28;20616;-63
2022/10/29 06:14:23;;;;;;;18.17;6.77;;;;;;;16.95;89.87;101183.38;5060887;28;20236;-63
2022/10/29 06:16:51;;;;;;;20.80;8.10;;;;;;;16.88;90.25;101177.91;5067752;28;20214;-63
2022/10/29 06:19:19;;;;;;;25.23;9.20;;;;;;;16.76;90.80;101174.75;5068396;28;20934;-63
2022/10/29 06:21:46;;;;;;;16.20;6.77;;;;;;;16.69;91.43;101179.09;5062675;28;20199;-65
2022/10/29 06:24:14;;;;;;;20.43;7.40;;;;;;;16.69;92.07;101178.28;5063105;28;20215;-62
2022/10/29 06:26:41;;;;;;;17.37;6.87;;;;;;;16.67;91.93;101177.59;5055572;28;20199;-63
2022/10/29 06:29:09;;;;;;;21.10;7.20;;;;;;;16.66;92.57;101182.13;5059999;28;20261;-63
2022/10/29 06:31:38;;;;;;;17.73;6.67;;;;;;;16.63;92.50;101178.94;5063423;28;20567;-63
2022/10/29 06:34:06;;;;;;;17.67;7.67;;;;;;;16.64;93.16;101177.94;5060745;28;20577;-63
2022/10/29 06:36:33;;;;;;;19.83;7.57;;;;;;;16.66;92.65;101179.44;5067137;28;20285;-61
2022/10/29 06:39:01;;;;;;;18.23;6.50;;;;;;;16.65;92.16;101177.75;5069901;28;20204;-64
2022/10/29 06:41:29;;;;;;;15.83;6.97;;;;;;;16.62;92.61;101167.41;5060544;28;20215;-62
2022/10/29 06:43:57;;;;;;;17.17;7.17;;;;;;;16.59;92.91;101178.41;5066376;28;20208;-63
2022/10/29 06:46:25;;;;;;;23.60;8.43;;;;;;;16.56;92.86;101181.44;5060159;28;20208;-63
2022/10/29 06:48:54;;;;;;;20.17;7.67;;;;;;;16.59;92.92;101185.63;5057801;28;20215;-63
2022/10/29 06:51:22;;;;;;;19.23;6.97;;;;;;;16.53;93.01;101184.47;5058556;28;20203;-63
2022/10/29 06:53:54;;;;;;;17.53;7.50;;;;;;;16.48;93.84;101187.63;5059473;28;20359;-63
2022/10/29 06:56:22;;;;;;;17.53;7.50;;;;;;;16.52;93.34;101183.63;5058110;28;20623;-63
2022/10/29 06:58:49;;;;;;;22.80;7.03;;;;;;;16.55;93.41;101198.50;5065776;28;20219;-63
2022/10/29 07:01:17;;;;;;;18.97;7.17;;;;;;;16.62;92.76;101194.19;5064314;28;20206;-63
2022/10/29 07:03:45;;;;;;;19.23;7.63;;;;;;;16.65;91.81;101204.53;5055230;28;20262;-64
2022/10/29 07:06:14;;;;;;;16.60;7.13;;;;;;;16.68;91.11;101201.53;5062049;28;20204;-62
2022/10/29 07:08:41;;;;;;;23.87;7.53;;;;;;;16.64;91.57;101197.50;5061921;28;20244;-63
2022/10/29 07:11:09;;;;;;;22.03;7.20;;;;;;;16.68;91.60;101206.06;5059994;28;20234;-63
2022/10/29 07:13:36;;;;;;;25.67;8.07;;;;;;;16.71;91.19;101198.50;5056098;28;20258;-63
2022/10/29 07:16:05;;;;;;;18.07;7.53;;;;;;;16.67;91.30;101202.53;5058391;28;20823;-63
2022/10/29 07:18:33;;;;;;;24.63;7.80;;;;;;;16.71;91.31;101203.06;5051642;28;20603;-63
2022/10/29 07:21:02;;;;;;;23.10;7.40;;;;;;;16.68;91.14;101209.56;5058249;28;20268;-63
2022/10/29 07:23:31;;;;;;;17.10;7.40;;;;;;;16.74;91.15;101206.19;5066129;28;20585;-63
2022/10/29 07:25:59;;;;;;;24.80;8.10;;;;;;;16.76;90.46;101206.88;5062050;28;20239;-63
2022/10/29 07:28:27;;;;;;;17.80;7.70;;;;;;;16.79;90.45;101209.22;5061102;28;20711;-63
2022/10/29 07:30:59;;;;;;;17.90;6.83;;;;;;;16.83;89.29;101210.53;5069178;28;20777;-62
2022/10/29 07:33:28;;;;;;;17.93;7.60;;;;;;;16.82;89.57;101206.19;5064593;28;20214;-63
2022/10/29 07:35:57;;;;;;;16.90;7.83;;;;;;;16.85;89.35;101211.22;5061781;28;20286;-63
2022/10/29 07:38:25;;;;;;;17.43;7.43;;;;;;;16.89;89.00;101215.19;5053029;28;20679;-62
2022/10/29 07:40:54;;;;;;;26.10;8.63;;;;;;;16.90;88.76;101219.56;5063031;28;20261;-62
2022/10/29 07:43:22;;;;;;;19.00;7.00;;;;;;;16.94;88.17;101217.38;5064182;28;20227;-63
2022/10/29 07:45:51;;;;;;;23.57;8.43;;;;;;;16.91;88.50;101215.88;5060513;28;21045;-63
2022/10/29 07:48:20;;;;;;;18.87;7.70;;;;;;;16.95;88.52;101204.81;5069003;28;20299;-63
2022/10/29 07:50:48;;;;;;;15.37;6.83;;;;;;;16.97;88.76;101208.19;5062401;28;20258;-63
2022/10/29 07:53:16;;;;;;;21.93;7.50;;;;;;;17.00;88.03;101215.84;5057895;28;20219;-63
2022/10/29 07:55:44;;;;;;;22.07;8.10;;;;;;;17.06;88.46;101212.50;5057202;28;20676;-63
2022/10/29 07:58:13;;;;;;;20.50;8.73;;;;;;;17.09;88.05;101214.81;5060738;28;20226;-63
2022/10/29 08:00:41;;;;;;;19.60;8.10;;;;;;;17.12;87.86;101212.66;5057249;28;20219;-63
2022/10/29 08:03:11;;;;;;;20.57;7.10;;;;;;;17.12;88.23;101217.16;5048110;28;20302;-63
2022/10/29 08:05:39;;;;;;;18.40;6.83;;;;;;;17.17;88.05;101223.66;5056276;28;20207;-63
2022/10/29 08:08:10;;;;;;;21.30;8.17;;;;;;;17.24;87.60;101221.13;5059436;28;20680;-63
2022/10/29 08:10:37;;;;;;;20.90;8.20;;;;;;;17.26;87.06;101219.09;5052319;28;20219;-62
2022/10/29 08:13:06;;;;;;;17.93;7.03;;;;;;;17.27;86.67;101218.94;5054809;28;20267;-63
2022/10/29 08:15:36;;;;;;;20.43;8.20;;;;;;;17.30;86.34;101215.09;5057680;28;20222;-63
2022/10/29 08:18:09;;;;;;;23.27;7.40;;;;;;;17.27;86.74;101212.75;5060570;28;20231;-63
2022/10/29 08:20:37;;;;;;;26.13;8.07;;;;;;;17.36;86.04;101210.88;5061662;28;20204;-63
2022/10/29 08:23:04;;;;;;;22.00;7.53;;;;;;;17.38;86.56;101207.00;5050574;28;20877;-64
2022/10/29 08:25:32;;;;;;;26.23;7.87;;;;;;;17.49;86.65;101206.63;5048520;28;20248;-66
2022/10/29 08:28:01;;;;;;;18.83;7.07;;;;;;;17.56;86.19;101210.28;5045252;28;20254;-64
2022/10/29 08:30:29;;;;;;;17.53;7.00;;;;;;;17.66;84.84;101216.28;5051107;28;20620;-64
2022/10/29 08:32:58;;;;;;;29.47;7.60;;;;;;;17.70;83.72;101215.91;5060673;28;20207;-63
2022/10/29 08:35:27;;;;;;;20.03;7.53;;;;;;;17.75;82.91;101216.25;5056448;28;20203;-63
2022/10/29 08:37:55;;;;;;;15.50;7.47;;;;;;;17.77;83.04;101222.25;5063187;28;20605;-63
2022/10/29 08:40:29;;;;;;;17.03;7.00;;;;;;;17.85;82.94;101231.09;5061088;28;20908;-64
2022/10/29 08:43:24;;;;;;;20.83;7.07;;;;;;;17.96;81.76;101221.78;5058498;28;20265;-64
2022/10/29 08:45:54;;;;;;;17.30;8.57;;;;;;;18.00;81.87;101228.50;5065591;28;20711;-64
2022/10/29 08:48:29;;;;;;;17.83;7.33;;;;;;;18.11;81.81;101229.94;5064937;28;20427;-63
2022/10/29 08:51:03;;;;;;;17.13;7.30;;;;;;;18.28;81.17;101226.94;5052994;28;20258;-64
2022/10/29 08:53:36;;;;;;;15.53;6.83;;;;;;;18.47;79.96;101236.31;5061731;28;20644;-63
2022/10/29 08:56:09;;;;;;;16.13;6.17;;;;;;;18.53;78.89;101224.88;5057296;28;20899;-63
2022/10/29 08:58:44;;;;;;;20.33;6.73;;;;;;;18.54;79.25;101225.72;5052057;28;20249;-64
2022/10/29 09:01:12;;;;;;;20.93;6.83;;;;;;;18.56;78.69;101227.19;5054438;28;20228;-64
2022/10/29 09:03:41;;;;;;;24.27;7.27;;;;;;;18.55;79.67;101232.75;5058053;28;20200;-63
2022/10/29 09:06:13;;;;;;;15.83;6.17;;;;;;;18.64;78.48;101215.59;5056201;28;20203;-63
2022/10/29 09:08:54;;;;;;;20.50;7.60;;;;;;;18.89;78.15;101218.84;5060663;28;20641;-62
2022/10/29 09:11:40;;;;;;;20.13;7.00;;;;;;;19.80;72.84;101216.53;5050802;28;20266;-63
2022/10/29 09:14:35;;;;;;;18.00;6.57;;;;;;;20.79;67.74;101205.84;5058282;28;20239;-63
2022/10/29 09:17:10;;;;;;;12.40;6.00;;;;;;;22.22;61.95;101205.84;5057605;28;20562;-63
2022/10/29 09:19:58;;;;;;;18.53;6.27;;;;;;;23.52;56.90;101197.75;5056070;28;20704;-64
2022/10/29 09:22:32;;;;;;;16.30;6.23;;;;;;;24.03;54.23;101200.38;5057066;28;20200;-64
2022/10/29 09:25:12;;;;;;;16.38;6.50;;;;;;;24.51;52.49;101200.66;5055138;28;20285;-64
2022/10/29 09:27:53;;;;;;;16.13;5.85;;;;;;;25.00;50.99;101202.50;5057955;28;20712;-64
2022/10/29 09:30:22;;;;;;;17.40;6.07;;;;;;;24.94;51.27;101197.97;5053210;28;20230;-63
2022/10/29 09:32:58;;;;;;;11.88;5.00;;;;;;;24.70;51.87;101204.25;5047409;28;20254;-65
2022/10/29 09:35:37;;;;;;;18.50;5.95;;;;;;;24.56;52.22;101205.41;5050960;28;20214;-64
2022/10/29 09:38:15;;;;;;;17.40;6.47;;;;;;;24.50;52.18;101198.19;5059604;28;20203;-64
2022/10/29 09:40:44;;;;;;;15.38;6.13;;;;;;;24.20;53.02;101190.66;5050995;28;20834;-64
2022/10/29 09:43:24;;;;;;;14.57;5.68;;;;;;;23.94;53.81;101182.72;5059456;28;20559;-65
2022/10/29 09:46:00;;;;;;;13.43;5.20;;;;;;;23.78;55.13;101175.97;5052643;28;20272;-64
2022/10/29 09:48:34;;;;;;;20.55;5.88;;;;;;;23.79;54.85;101174.91;5056028;28;20699;-63
2022/10/29 09:51:15;;;;;;;18.90;5.75;;;;;;;23.58;54.92;101175.22;5061418;28;20272;-64
2022/10/29 09:53:43;;;;;;;18.02;6.43;;;;;;;23.15;56.47;101173.09;5056425;28;20204;-63
2022/10/29 09:56:11;;;;;;;16.42;6.57;;;;;;;22.80;58.24;101167.16;5060577;28;20857;-63
2022/10/29 09:58:44;;;;;;;16.48;5.95;;;;;;;22.64;58.91;101166.75;5051924;28;20208;-64
2022/10/29 10:01:13;;;;;;;14.65;6.00;;;;;;;22.49;59.14;101159.72;5063231;28;20548;-64
2022/10/29 10:03:44;;;;;;;19.52;6.03;;;;;;;22.54;59.37;101161.78;5066658;28;20765;-64
2022/10/29 10:06:15;;;;;;;19.60;5.82;;;;;;;23.02;58.45;101158.81;5059817;28;20207;-64
2022/10/29 10:09:00;;;;;;;16.80;7.35;;;;;;;23.65;56.58;101154.38;5063567;28;20230;-63
2022/10/29 10:11:35;;;;;;;18.75;6.57;;;;;;;23.61;56.41;101153.97;5054067;28;20278;-65
2022/10/29 10:14:08;;;;;;;20.83;6.68;;;;;;;23.33;57.64;101156.16;5059035;28;20229;-64
2022/10/29 10:16:36;;;;;;;12.65;5.80;;;;;;;23.33;58.47;101158.88;5053964;28;20218;-64
2022/10/29 10:19:21;;;;;;;19.90;6.38;;;;;;;23.31;57.94;101158.25;5057482;28;20219;-64
2022/10/29 10:21:57;;;;;;;16.05;6.13;;;;;;;23.14;58.66;101165.19;5051388;28;20208;-64
2022/10/29 10:24:33;;;;;;;13.82;6.15;;;;;;;22.91;59.29;101157.59;5049428;28;20239;-64
2022/10/29 10:27:01;;;;;;;19.88;6.53;;;;;;;22.72;60.27;101148.44;5052151;28;20204;-64
2022/10/29 10:29:28;;;;;;;15.88;6.30;;;;;;;22.61;61.07;101154.50;5051561;28;20264;-65
2022/10/29 10:32:15;;;;;;;20.65;5.82;;;;;;;22.61;60.88;101148.25;5058887;28;20223;-63
2022/10/29 10:34:43;;;;;;;14.25;5.80;;;;;;;22.54;60.94;101145.56;5046352;28;20491;-63
2022/10/29 10:37:18;;;;;;;13.73;6.32;;;;;;;22.42;61.08;101152.66;5053086;28;20207;-63
2022/10/29 10:39:48;;;;;;;14.43;6.30;;;;;;;22.40;61.49;101143.94;5049046;28;20215;-61
2022/10/29 10:42:19;;;;;;;11.38;5.60;;;;;;;22.46;61.51;101138.50;5052247;28;20592;-65
2022/10/29 10:44:51;;;;;;;16.02;6.40;;;;;;;22.48;61.69;101133.72;5051218;28;20653;-64
2022/10/29 10:47:22;;;;;;;11.85;5.75;;;;;;;22.37;61.83;101134.34;5050907;28;20697;-62
2022/10/29 10:49:50;;;;;;;21.52;6.10;;;;;;;22.31;61.29;101115.47;5048176;28;20223;-64
2022/10/29 10:52:25;;;;;;;18.00;6.20;;;;;;;22.20;61.41;101111.50;5059807;28;20366;-63
2022/10/29 10:55:00;;;;;;;17.43;5.80;;;;;;;22.12;61.23;101109.84;5055974;28;20204;-64
2022/10/29 10:57:32;;;;;;;13.73;5.43;;;;;;;22.01;61.56;101102.38;5060854;28;20199;-63
2022/10/29 11:00:06;;;;;;;14.17;5.70;;;;;;;22.02;61.67;101098.63;5066051;28;20629;-63
2022/10/29 11:02:44;;;;;;;16.00;5.30;;;;;;;22.08;61.36;101091.56;5061728;28;20204;-64
2022/10/29 11:05:16;;;;;;;12.07;5.33;;;;;;;22.17;61.10;101084.91;5062247;28;20203;-63
2022/10/29 11:07:54;;;;;;;13.53;4.90;;;;;;;22.27;60.61;101077.22;5053657;28;20944;-64
2022/10/29 11:10:30;;;;;;;15.80;5.63;;;;;;;22.23;61.39;101083.25;5055437;28;20223;-64
2022/10/29 11:13:03;;;;;;;18.57;6.60;;;;;;;22.23;62.44;101085.97;5060582;28;20277;-64
2022/10/29 11:15:38;;;;;;;14.50;5.40;;;;;;;22.20;62.26;101086.38;5059193;28;20200;-62
2022/10/29 11:18:16;;;;;;;18.03;6.13;;;;;;;22.13;62.29;101081.81;5049666;28;20204;-64
2022/10/29 11:20:55;;;;;;;14.97;6.13;;;;;;;22.06;62.54;101081.00;5054333;28;20238;-62
2022/10/29 11:23:37;;;;;;;13.37;5.20;;;;;;;22.00;62.71;101076.41;5058237;28;20204;-61
2022/10/29 11:26:08;;;;;;;19.80;5.67;;;;;;;21.89;63.37;101077.03;5055332;28;20251;-62
2022/10/29 11:28:39;;;;;;;19.57;5.97;;;;;;;21.73;64.35;101077.41;5061364;28;20235;-62
2022/10/29 11:31:17;;;;;;;17.73;5.07;;;;;;;21.71;64.02;101066.00;5060399;28;20290;-62
2022/10/29 11:33:52;;;;;;;19.00;5.57;;;;;;;21.58;64.84;101074.06;5059692;28;20230;-62